Terminal Aerodrome Forecast
Issued by NWS Atlanta, GA

Home | Current Version | Previous Version | Text Only | Print | Product List | Glossary On
Versions: 1 2 3 4 5 6 7 8 9 10 11 12 13 14 15 16 17 18 19 20 21
000
FTUS42 KFFC 301739
TAFMCN
TAF
KMCN 301739Z 3018/0118 17011G20KT P6SM BKN045
     FM010900 19010G18KT P6SM BKN018
     FM011200 20010G18KT P6SM VCSH OVC015 PROB30 0113/0115 3SM TSRA
      BKN012CB OVC022
     FM011700 23013G20KT P6SM OVC050=

USA.gov is the U.S. government's official web portal to all federal, state and local government web resources and services.